Time;durP1;ratioP1;P1;durP2;ratioP2;P2;SDS_P1;SDS_P2;PMS_P1;PMS_P2;Temp;Humidity;BMP_temperature;BMP_pressure;BME280_temperature;BME280_humidity;BME280_pressure;Samples;Min_cycle;Max_cycle;Signal;HPM_P1;HPM_P2
2023/11/07 00:02:05;;;;;;;1.65;1.40;;;15.90;69.10;;;;;;5133291;28;20212;-66
2023/11/07 00:04:31;;;;;;;2.50;1.67;;;15.90;69.30;;;;;;5133480;28;20255;-66
2023/11/07 00:06:58;;;;;;;2.88;1.63;;;15.90;69.30;;;;;;5132707;28;20215;-67
2023/11/07 00:09:24;;;;;;;2.55;1.02;;;15.90;69.30;;;;;;5133493;28;20172;-67
2023/11/07 00:11:49;;;;;;;2.03;1.20;;;15.90;69.30;;;;;;5133411;28;20248;-67
2023/11/07 00:14:15;;;;;;;2.05;1.52;;;15.90;69.30;;;;;;5132288;28;20172;-66
2023/11/07 00:16:41;;;;;;;5.43;2.00;;;15.90;69.30;;;;;;5133076;28;20180;-66
2023/11/07 00:19:07;;;;;;;1.95;1.55;;;15.90;69.30;;;;;;5114898;28;20172;-66
2023/11/07 00:21:33;;;;;;;2.60;1.48;;;15.80;69.20;;;;;;5132682;28;20282;-67
2023/11/07 00:23:59;;;;;;;3.65;1.65;;;15.80;69.20;;;;;;5132981;28;20659;-67
2023/11/07 00:26:25;;;;;;;1.85;1.50;;;15.90;69.30;;;;;;5133259;28;20180;-67
2023/11/07 00:28:50;;;;;;;3.53;1.42;;;15.80;69.20;;;;;;5132760;28;20198;-67
2023/11/07 00:31:16;;;;;;;2.33;1.63;;;15.80;69.20;;;;;;5133171;28;20173;-66
2023/11/07 00:33:41;;;;;;;1.90;1.52;;;15.80;69.20;;;;;;5133435;28;20176;-67
2023/11/07 00:36:10;;;;;;;1.65;1.55;;;15.80;69.20;;;;;;5132261;28;20192;-67
2023/11/07 00:38:36;;;;;;;2.75;1.55;;;15.80;69.20;;;;;;5133250;28;20172;-66
2023/11/07 00:41:03;;;;;;;2.13;1.20;;;15.80;69.20;;;;;;5135057;27;20217;-67
2023/11/07 00:43:28;;;;;;;2.47;1.40;;;15.80;69.30;;;;;;5136298;27;20270;-66
2023/11/07 00:45:54;;;;;;;1.58;1.42;;;15.80;69.20;;;;;;5136902;27;20676;-66
2023/11/07 00:48:20;;;;;;;1.92;1.33;;;15.80;69.20;;;;;;5136232;27;20722;-66
2023/11/07 00:50:45;;;;;;;2.38;1.63;;;15.80;69.20;;;;;;5136107;27;20203;-66
2023/11/07 00:53:11;;;;;;;2.20;1.60;;;15.70;69.20;;;;;;5136355;27;20649;-67
2023/11/07 00:55:36;;;;;;;4.40;1.63;;;15.80;69.20;;;;;;5136502;27;20179;-67
2023/11/07 00:58:02;;;;;;;2.00;1.55;;;15.70;69.20;;;;;;5135721;27;20172;-66
2023/11/07 01:00:28;;;;;;;2.83;2.00;;;15.70;69.20;;;;;;5136552;27;20165;-66
2023/11/07 01:02:53;;;;;;;3.17;1.55;;;15.70;69.20;;;;;;5135543;27;20688;-66
2023/11/07 01:05:19;;;;;;;1.88;1.63;;;15.70;69.20;;;;;;5135871;27;20180;-67
2023/11/07 01:07:44;;;;;;;1.80;1.23;;;15.70;69.20;;;;;;5136354;27;20245;-67
2023/11/07 01:10:10;;;;;;;2.15;1.65;;;15.70;69.20;;;;;;5135380;27;20173;-67
2023/11/07 01:12:38;;;;;;;2.08;1.55;;;15.70;69.30;;;;;;5136285;27;20268;-66
2023/11/07 01:15:05;;;;;;;1.67;1.38;;;15.70;69.30;;;;;;5135948;27;20503;-66
2023/11/07 01:17:30;;;;;;;1.55;1.33;;;15.70;69.20;;;;;;5135680;27;20184;-66
2023/11/07 01:19:56;;;;;;;2.78;1.50;;;15.70;69.20;;;;;;5136113;27;20627;-66
2023/11/07 01:22:21;;;;;;;2.85;1.55;;;15.70;69.10;;;;;;5135587;27;20211;-67
2023/11/07 01:24:47;;;;;;;1.42;1.30;;;15.70;69.20;;;;;;5135512;27;20180;-66
2023/11/07 01:27:13;;;;;;;2.72;1.52;;;15.70;69.20;;;;;;5135886;27;20176;-66
2023/11/07 01:29:39;;;;;;;2.28;1.40;;;15.70;69.20;;;;;;5136166;27;20165;-66
2023/11/07 01:32:05;;;;;;;2.20;1.77;;;15.70;69.40;;;;;;5134940;27;20175;-66
2023/11/07 01:34:30;;;;;;;2.40;1.30;;;15.70;69.30;;;;;;5135975;27;20179;-67
2023/11/07 01:36:56;;;;;;;2.33;1.63;;;15.70;69.20;;;;;;5135974;27;20168;-67
2023/11/07 01:39:21;;;;;;;3.17;1.42;;;15.70;69.40;;;;;;5134733;27;20199;-67
2023/11/07 01:41:47;;;;;;;1.83;1.25;;;15.60;69.20;;;;;;5135681;27;20562;-66
2023/11/07 01:44:12;;;;;;;2.67;1.40;;;15.70;69.40;;;;;;5135298;27;20177;-66
2023/11/07 01:46:38;;;;;;;3.05;1.40;;;15.60;69.30;;;;;;5135008;27;20173;-66
2023/11/07 01:49:04;;;;;;;1.50;1.40;;;15.60;69.40;;;;;;5116768;27;20627;-66
2023/11/07 01:51:29;;;;;;;1.58;1.40;;;15.60;69.40;;;;;;5116565;28;20623;-66
2023/11/07 01:53:55;;;;;;;2.33;1.40;;;15.60;69.40;;;;;;5134868;27;20256;-67
2023/11/07 01:56:23;;;;;;;1.42;1.33;;;15.60;69.30;;;;;;5116799;27;20636;-67
2023/11/07 01:58:48;;;;;;;2.13;1.38;;;15.60;69.30;;;;;;5135584;27;20183;-66
2023/11/07 02:01:17;;;;;;;3.13;1.60;;;15.60;69.40;;;;;;5134090;27;20172;-66
2023/11/07 02:03:42;;;;;;;3.03;1.58;;;15.60;69.40;;;;;;5135290;27;20195;-67
2023/11/07 02:06:08;;;;;;;1.48;1.20;;;15.60;69.40;;;;;;5116716;27;20538;-67
2023/11/07 02:08:33;;;;;;;1.90;1.10;;;15.60;69.40;;;;;;5134491;27;20541;-67
2023/11/07 02:10:59;;;;;;;1.40;1.15;;;15.60;69.50;;;;;;5134859;27;20172;-66
2023/11/07 02:13:24;;;;;;;4.43;1.30;;;15.60;69.40;;;;;;5134289;27;20619;-66
2023/11/07 02:15:50;;;;;;;2.38;1.42;;;15.60;69.50;;;;;;5134906;27;20212;-65
2023/11/07 02:18:16;;;;;;;2.85;1.50;;;15.60;69.40;;;;;;5134683;27;20216;-66
2023/11/07 02:20:41;;;;;;;2.47;1.55;;;15.60;69.50;;;;;;5134049;27;20224;-66
2023/11/07 02:23:09;;;;;;;3.60;1.40;;;15.60;69.50;;;;;;5115925;27;20581;-66
2023/11/07 02:25:38;;;;;;;2.28;1.55;;;15.60;69.50;;;;;;5134777;27;20178;-66
2023/11/07 02:28:04;;;;;;;1.88;1.40;;;15.50;69.50;;;;;;5133890;27;20184;-65
2023/11/07 02:30:30;;;;;;;2.40;1.50;;;15.60;69.50;;;;;;5134774;27;20188;-66
2023/11/07 02:32:57;;;;;;;2.25;1.52;;;15.50;69.30;;;;;;5115655;27;20169;-66
2023/11/07 02:35:22;;;;;;;2.25;1.40;;;15.50;69.50;;;;;;5112470;28;20181;-66
2023/11/07 02:37:48;;;;;;;2.00;1.30;;;15.50;69.60;;;;;;5113977;28;20169;-67
2023/11/07 02:40:13;;;;;;;2.13;1.45;;;15.50;69.50;;;;;;5113809;28;20177;-66
2023/11/07 02:42:40;;;;;;;2.13;1.63;;;15.50;69.50;;;;;;5112995;28;20204;-65
2023/11/07 02:45:06;;;;;;;1.30;1.20;;;15.50;69.50;;;;;;5113493;28;20256;-66
2023/11/07 02:47:32;;;;;;;2.72;1.25;;;15.50;69.50;;;;;;5113335;28;20263;-65
2023/11/07 02:49:57;;;;;;;1.77;1.25;;;15.50;69.50;;;;;;5112939;28;20260;-65
2023/11/07 02:52:24;;;;;;;2.53;1.23;;;15.50;69.60;;;;;;5113549;28;20177;-66
2023/11/07 02:54:49;;;;;;;1.60;1.10;;;15.50;69.60;;;;;;5113646;28;20684;-67
2023/11/07 02:57:15;;;;;;;2.63;1.48;;;15.50;69.60;;;;;;5112590;28;20177;-66
2023/11/07 02:59:43;;;;;;;1.50;1.20;;;15.50;69.60;;;;;;5113513;28;20173;-67
2023/11/07 03:02:09;;;;;;;1.88;1.40;;;15.50;69.60;;;;;;5113144;28;21030;-66
2023/11/07 03:04:34;;;;;;;2.13;1.30;;;15.50;69.50;;;;;;5112856;28;20199;-66
2023/11/07 03:07:00;;;;;;;1.73;1.38;;;15.50;69.60;;;;;;5113068;28;20206;-67
2023/11/07 03:09:26;;;;;;;2.05;1.50;;;15.50;69.50;;;;;;5113634;28;20197;-66
2023/11/07 03:11:52;;;;;;;1.77;1.58;;;15.50;69.60;;;;;;5112878;28;20250;-67
2023/11/07 03:14:17;;;;;;;1.73;1.30;;;15.40;69.50;;;;;;5113313;28;20177;-65
2023/11/07 03:16:43;;;;;;;2.20;1.50;;;15.40;69.50;;;;;;5112793;28;20168;-66
2023/11/07 03:19:08;;;;;;;1.33;1.20;;;15.50;69.60;;;;;;5113190;28;20586;-66
2023/11/07 03:21:34;;;;;;;1.95;1.38;;;15.40;69.50;;;;;;5113252;28;20728;-66
2023/11/07 03:24:00;;;;;;;1.60;1.50;;;15.40;69.50;;;;;;5112332;28;20631;-67
2023/11/07 03:26:26;;;;;;;1.50;1.10;;;15.50;69.60;;;;;;5113378;28;20195;-66
2023/11/07 03:28:52;;;;;;;2.15;1.63;;;15.40;69.50;;;;;;5113483;28;20609;-66
2023/11/07 03:31:18;;;;;;;2.40;1.27;;;15.40;69.50;;;;;;5112220;28;20192;-66
2023/11/07 03:33:43;;;;;;;2.25;1.17;;;15.40;69.60;;;;;;5113189;28;20263;-67
2023/11/07 03:36:09;;;;;;;2.97;1.33;;;15.40;69.60;;;;;;5112851;28;20176;-67
2023/11/07 03:38:34;;;;;;;2.88;1.85;;;15.40;69.50;;;;;;5112751;28;20188;-66
2023/11/07 03:41:02;;;;;;;2.63;1.45;;;15.40;69.60;;;;;;5112944;28;20177;-66
2023/11/07 03:43:28;;;;;;;1.83;1.65;;;15.40;69.60;;;;;;5113025;28;20306;-66
2023/11/07 03:45:53;;;;;;;1.77;1.30;;;15.40;69.50;;;;;;5112445;28;20237;-66
2023/11/07 03:48:19;;;;;;;1.67;1.13;;;15.40;69.70;;;;;;5112735;28;20248;-66
2023/11/07 03:50:44;;;;;;;2.25;1.50;;;15.40;69.60;;;;;;5113061;28;20248;-66
2023/11/07 03:53:10;;;;;;;2.88;1.58;;;15.40;69.60;;;;;;5112182;28;20276;-66
2023/11/07 03:55:36;;;;;;;2.00;1.40;;;15.40;69.60;;;;;;5113028;28;20607;-67
2023/11/07 03:58:01;;;;;;;1.80;1.40;;;15.40;69.60;;;;;;5112863;28;20229;-66
2023/11/07 04:00:27;;;;;;;2.30;1.33;;;15.40;69.60;;;;;;5112283;28;20169;-66
2023/11/07 04:02:52;;;;;;;1.55;1.40;;;15.40;69.70;;;;;;5113123;28;20208;-66
2023/11/07 04:05:18;;;;;;;2.40;1.65;;;15.40;69.70;;;;;;5112707;28;20646;-66
2023/11/07 04:07:44;;;;;;;1.58;1.40;;;15.40;69.70;;;;;;5112402;28;20548;-67
2023/11/07 04:10:09;;;;;;;3.50;1.40;;;15.40;69.70;;;;;;5112588;28;20184;-67
2023/11/07 04:12:35;;;;;;;1.63;1.48;;;15.40;69.70;;;;;;5112863;28;20283;-66
2023/11/07 04:15:05;;;;;;;1.20;1.10;;;15.40;69.70;;;;;;5112756;28;20264;-66
2023/11/07 04:17:30;;;;;;;1.23;1.13;;;15.40;69.60;;;;;;5116878;28;20592;-66
2023/11/07 04:19:56;;;;;;;2.28;1.40;;;15.40;69.70;;;;;;5115940;28;20620;-66
2023/11/07 04:22:22;;;;;;;3.25;1.58;;;15.40;69.70;;;;;;5116577;28;20675;-67
2023/11/07 04:24:47;;;;;;;1.33;1.23;;;15.40;69.60;;;;;;5116769;28;20196;-67
2023/11/07 04:27:16;;;;;;;2.08;1.40;;;15.40;69.60;;;;;;5115752;28;20218;-66
2023/11/07 04:29:42;;;;;;;1.88;1.40;;;15.30;69.70;;;;;;5116624;28;20662;-67
2023/11/07 04:32:07;;;;;;;1.48;1.38;;;15.30;69.70;;;;;;5116380;28;20169;-66
2023/11/07 04:34:34;;;;;;;1.42;1.33;;;15.40;69.80;;;;;;5115873;28;20169;-67
2023/11/07 04:36:59;;;;;;;1.95;1.25;;;15.30;69.80;;;;;;5116334;28;20568;-67
2023/11/07 04:39:25;;;;;;;2.42;1.45;;;15.30;69.70;;;;;;5116297;28;20254;-67
2023/11/07 04:41:52;;;;;;;4.00;1.60;;;15.30;69.60;;;;;;5115511;28;20193;-65
2023/11/07 04:44:20;;;;;;;2.83;1.48;;;15.30;69.70;;;;;;5115966;28;20246;-64
2023/11/07 04:46:47;;;;;;;1.52;1.30;;;15.30;69.70;;;;;;5116186;28;20176;-63
2023/11/07 04:49:13;;;;;;;2.60;1.25;;;15.30;69.80;;;;;;5114927;28;20229;-66
2023/11/07 04:51:40;;;;;;;3.65;1.58;;;15.30;69.70;;;;;;5116069;28;20576;-66
2023/11/07 04:54:06;;;;;;;2.30;1.30;;;15.30;69.70;;;;;;5115945;28;20215;-67
2023/11/07 04:56:32;;;;;;;2.80;1.20;;;15.30;69.90;;;;;;5115416;28;20707;-66
2023/11/07 04:58:58;;;;;;;1.88;1.23;;;15.30;69.70;;;;;;5116113;28;20269;-67
2023/11/07 05:01:23;;;;;;;2.70;1.67;;;15.30;69.80;;;;;;5115967;28;20177;-66
2023/11/07 05:03:49;;;;;;;1.80;1.48;;;15.30;69.80;;;;;;5115112;28;20179;-67
2023/11/07 05:06:15;;;;;;;2.10;1.58;;;15.30;69.80;;;;;;5097638;28;20274;-67
2023/11/07 05:08:41;;;;;;;2.17;1.40;;;15.30;69.80;;;;;;5115896;28;20177;-67
2023/11/07 05:11:06;;;;;;;2.03;1.75;;;15.30;69.80;;;;;;5114747;28;20199;-66
2023/11/07 05:13:32;;;;;;;3.70;1.63;;;15.30;69.60;;;;;;5115820;28;20251;-66
2023/11/07 05:15:57;;;;;;;1.98;1.40;;;15.30;69.70;;;;;;5115375;28;20510;-66
2023/11/07 05:18:23;;;;;;;2.67;1.80;;;15.30;69.80;;;;;;5115062;28;20260;-66
2023/11/07 05:20:49;;;;;;;2.72;1.17;;;15.30;70.20;;;;;;5115832;28;20192;-66
2023/11/07 05:23:15;;;;;;;2.33;1.30;;;15.30;69.70;;;;;;5114607;28;20215;-67
2023/11/07 05:25:40;;;;;;;2.38;1.60;;;15.30;69.80;;;;;;5115445;28;20173;-66
2023/11/07 05:28:06;;;;;;;2.08;1.20;;;15.20;69.70;;;;;;5113916;28;20256;-66
2023/11/07 05:30:32;;;;;;;3.13;1.38;;;15.20;69.60;;;;;;5114590;28;20307;-66
2023/11/07 05:33:00;;;;;;;1.33;1.20;;;15.20;69.60;;;;;;5115455;28;20313;-66
2023/11/07 05:35:26;;;;;;;2.15;1.40;;;15.30;69.80;;;;;;5115415;28;20172;-67
2023/11/07 05:37:52;;;;;;;2.20;1.55;;;15.20;69.80;;;;;;5114662;28;20180;-66
2023/11/07 05:40:18;;;;;;;3.40;1.92;;;15.30;69.90;;;;;;5114994;28;20181;-66
2023/11/07 05:42:44;;;;;;;2.25;1.58;;;15.20;69.70;;;;;;5115011;28;20208;-66
2023/11/07 05:45:10;;;;;;;2.13;1.48;;;15.20;69.60;;;;;;5114015;28;20176;-66
2023/11/07 05:47:36;;;;;;;1.90;1.40;;;15.20;69.70;;;;;;5115028;28;20217;-66
2023/11/07 05:50:05;;;;;;;2.65;1.33;;;15.20;69.70;;;;;;5114916;28;20216;-66
2023/11/07 05:52:32;;;;;;;4.03;1.70;;;15.20;69.60;;;;;;5114159;28;20177;-66
2023/11/07 05:55:00;;;;;;;3.28;1.42;;;15.20;69.80;;;;;;5114819;28;20197;-66
2023/11/07 05:57:25;;;;;;;3.08;1.75;;;15.20;69.60;;;;;;5114857;28;20177;-67
2023/11/07 05:59:51;;;;;;;2.35;1.65;;;15.20;69.70;;;;;;5114011;28;20183;-67
2023/11/07 06:02:17;;;;;;;2.80;1.65;;;15.20;69.60;;;;;;5114616;28;20586;-66
2023/11/07 06:04:42;;;;;;;1.70;1.40;;;15.20;69.70;;;;;;5114865;28;20535;-67
2023/11/07 06:07:09;;;;;;;3.38;1.30;;;15.20;69.70;;;;;;5113459;28;20527;-67
2023/11/07 06:09:35;;;;;;;2.67;1.30;;;15.20;69.60;;;;;;5114576;28;20176;-67
2023/11/07 06:12:01;;;;;;;2.85;1.58;;;15.30;69.50;;;;;;5114230;28;20172;-66
2023/11/07 06:14:26;;;;;;;2.90;1.48;;;15.30;69.40;;;;;;5113663;28;20173;-65
2023/11/07 06:16:54;;;;;;;2.80;1.70;;;15.30;69.40;;;;;;5114217;28;20307;-66
2023/11/07 06:19:20;;;;;;;2.58;1.58;;;15.40;69.40;;;;;;5114073;28;20551;-66
2023/11/07 06:21:48;;;;;;;3.15;1.65;;;15.40;69.30;;;;;;5113949;28;20289;-66
2023/11/07 06:24:14;;;;;;;2.03;1.52;;;15.40;69.20;;;;;;5114036;28;20165;-66
2023/11/07 06:26:40;;;;;;;1.95;1.17;;;15.40;69.20;;;;;;5113439;28;20229;-66
2023/11/07 06:29:05;;;;;;;1.70;1.60;;;15.40;69.30;;;;;;5113805;28;20200;-66
2023/11/07 06:31:31;;;;;;;3.08;1.55;;;15.40;69.30;;;;;;5114169;28;20616;-66
2023/11/07 06:33:57;;;;;;;1.40;1.30;;;15.40;69.30;;;;;;5113532;28;20173;-66
2023/11/07 06:36:24;;;;;;;2.67;1.67;;;15.40;69.40;;;;;;5113947;28;20234;-66
2023/11/07 06:38:50;;;;;;;2.55;1.80;;;15.30;69.40;;;;;;5113422;27;20256;-66
2023/11/07 06:41:17;;;;;;;2.10;1.55;;;15.30;69.40;;;;;;5112825;28;20256;-67
2023/11/07 06:43:43;;;;;;;1.95;1.20;;;15.30;69.40;;;;;;5113984;28;20185;-66
2023/11/07 06:46:08;;;;;;;2.70;1.70;;;15.30;69.40;;;;;;5113781;28;20260;-66
2023/11/07 06:48:34;;;;;;;3.28;1.63;;;15.30;69.50;;;;;;5113146;28;20552;-65
2023/11/07 06:51:02;;;;;;;1.50;1.33;;;15.30;69.60;;;;;;5113681;28;20636;-66
2023/11/07 06:53:28;;;;;;;1.90;1.38;;;15.30;69.60;;;;;;5113779;28;20172;-67
2023/11/07 06:55:54;;;;;;;2.65;1.67;;;15.30;69.60;;;;;;5113093;28;20586;-66
2023/11/07 06:58:20;;;;;;;2.03;1.58;;;15.30;69.60;;;;;;5113259;28;20179;-66
2023/11/07 07:00:46;;;;;;;1.63;1.50;;;15.30;69.60;;;;;;5113851;28;20173;-65
2023/11/07 07:03:11;;;;;;;2.05;1.52;;;15.30;69.60;;;;;;5112492;28;20698;-66
2023/11/07 07:05:37;;;;;;;3.13;1.33;;;15.30;69.70;;;;;;5113568;28;20177;-66
2023/11/07 07:08:03;;;;;;;2.78;1.58;;;15.30;69.70;;;;;;5113292;28;20184;-66
2023/11/07 07:10:29;;;;;;;2.55;1.38;;;15.30;69.60;;;;;;5112595;28;20184;-68
2023/11/07 07:12:54;;;;;;;1.08;1.00;;;15.40;69.60;;;;;;5113365;28;20181;-66
2023/11/07 07:15:20;;;;;;;1.75;1.20;;;15.50;69.50;;;;;;5112894;28;20298;-66
2023/11/07 07:17:45;;;;;;;2.42;1.50;;;15.60;69.30;;;;;;5112804;28;20173;-66
2023/11/07 07:20:11;;;;;;;2.63;1.40;;;15.80;69.20;;;;;;5113175;28;20537;-67
2023/11/07 07:22:41;;;;;;;1.83;1.17;;;15.90;69.90;;;;;;5095290;28;20635;-67
2023/11/07 07:25:07;;;;;;;1.35;1.13;;;16.10;68.80;;;;;;5113035;28;20180;-66
2023/11/07 07:27:33;;;;;;;1.73;1.02;;;16.30;68.10;;;;;;5113330;28;20173;-67
2023/11/07 07:30:05;;;;;;;1.42;1.00;;;16.50;67.70;;;;;;5112385;28;20252;-67
2023/11/07 07:32:35;;;;;;;2.38;1.13;;;16.60;67.30;;;;;;5113347;28;20181;-67
2023/11/07 07:35:09;;;;;;;1.27;1.00;;;16.60;67.30;;;;;;5112984;28;20252;-67
2023/11/07 07:37:35;;;;;;;1.33;0.95;;;16.60;67.20;;;;;;5112464;28;20200;-67
2023/11/07 07:40:00;;;;;;;2.53;1.10;;;16.70;67.20;;;;;;5112909;28;20204;-67
2023/11/07 07:42:28;;;;;;;1.00;0.90;;;16.90;66.80;;;;;;5112957;28;20629;-66
2023/11/07 07:44:53;;;;;;;1.20;1.10;;;16.90;66.50;;;;;;5112600;28;20245;-66
2023/11/07 07:47:19;;;;;;;1.83;1.27;;;17.10;66.40;;;;;;5112615;28;20620;-66
2023/11/07 07:49:45;;;;;;;1.50;1.27;;;17.10;66.30;;;;;;5112178;28;20676;-66
2023/11/07 07:52:10;;;;;;;2.58;1.23;;;17.20;66.20;;;;;;5116097;28;20190;-66
2023/11/07 07:54:39;;;;;;;2.47;1.73;;;17.30;65.90;;;;;;5117008;28;20177;-66
2023/11/07 07:57:08;;;;;;;2.40;1.63;;;17.30;65.80;;;;;;5116943;28;20173;-67
2023/11/07 07:59:34;;;;;;;6.78;1.30;;;17.40;66.00;;;;;;5116304;28;20177;-67
2023/11/07 08:02:01;;;;;;;4.65;1.10;;;17.50;66.00;;;;;;5116784;28;20274;-66
2023/11/07 08:04:28;;;;;;;8.98;1.80;;;17.60;65.70;;;;;;5117205;28;20193;-67
2023/11/07 08:06:54;;;;;;;3.00;1.10;;;17.70;65.60;;;;;;5116301;28;20176;-67
2023/11/07 08:09:20;;;;;;;2.22;1.40;;;17.70;65.90;;;;;;5116919;28;20196;-67
2023/11/07 08:11:47;;;;;;;5.13;1.52;;;17.80;65.80;;;;;;5117048;28;20165;-67
2023/11/07 08:14:14;;;;;;;2.60;1.40;;;17.80;65.50;;;;;;5115951;28;20177;-66
2023/11/07 08:16:41;;;;;;;1.50;1.30;;;17.80;65.50;;;;;;5117064;28;20169;-68
2023/11/07 08:19:09;;;;;;;2.17;1.30;;;17.80;65.80;;;;;;5115471;28;20222;-67
2023/11/07 08:21:41;;;;;;;4.03;1.40;;;17.80;65.70;;;;;;5116628;28;20230;-68
2023/11/07 08:24:07;;;;;;;2.97;1.10;;;17.90;65.50;;;;;;5116481;28;20183;-68
2023/11/07 08:26:35;;;;;;;3.28;1.80;;;17.90;65.50;;;;;;5116062;28;20226;-67
2023/11/07 08:29:05;;;;;;;2.00;1.10;;;17.90;65.60;;;;;;5116192;28;20852;-68
2023/11/07 08:31:34;;;;;;;1.55;1.10;;;17.80;65.60;;;;;;5116701;28;20184;-67
2023/11/07 08:34:00;;;;;;;1.77;1.20;;;17.70;65.80;;;;;;5115391;28;20247;-68
2023/11/07 08:36:26;;;;;;;2.42;1.30;;;17.60;66.20;;;;;;5116662;28;20191;-68
2023/11/07 08:38:52;;;;;;;1.55;1.33;;;17.50;66.30;;;;;;5116298;28;20204;-68
2023/11/07 08:41:17;;;;;;;1.70;1.20;;;17.40;66.30;;;;;;5115480;28;20185;-67
2023/11/07 08:43:43;;;;;;;2.95;1.60;;;17.50;66.30;;;;;;5116325;28;20201;-66
2023/11/07 08:46:08;;;;;;;2.45;1.65;;;17.40;66.50;;;;;;5116146;28;20165;-66
2023/11/07 08:48:44;;;;;;;3.08;1.48;;;17.40;67.40;;;;;;5115244;28;20285;-66
2023/11/07 08:51:09;;;;;;;4.03;1.40;;;17.30;66.50;;;;;;5115895;28;20579;-66
2023/11/07 08:53:35;;;;;;;3.80;1.40;;;17.30;66.80;;;;;;5116271;28;20256;-67
2023/11/07 08:56:00;;;;;;;1.40;1.20;;;17.30;66.70;;;;;;5115135;28;20196;-67
2023/11/07 08:58:28;;;;;;;3.00;1.73;;;17.20;67.90;;;;;;5116114;28;20512;-67
2023/11/07 09:00:57;;;;;;;1.35;0.90;;;17.20;67.10;;;;;;5115638;28;20177;-67
2023/11/07 09:03:22;;;;;;;2.08;1.20;;;17.20;67.20;;;;;;5114979;28;20216;-66
2023/11/07 09:05:48;;;;;;;3.20;1.30;;;17.20;67.10;;;;;;5116061;28;20170;-67
2023/11/07 09:08:17;;;;;;;2.47;1.40;;;17.20;67.00;;;;;;5114891;28;20169;-67
2023/11/07 09:10:43;;;;;;;2.20;1.08;;;17.20;67.10;;;;;;5115125;28;20188;-68
2023/11/07 09:13:10;;;;;;;2.85;1.45;;;17.20;67.10;;;;;;5115484;28;20177;-66
2023/11/07 09:15:36;;;;;;;2.33;1.30;;;17.10;67.10;;;;;;5114824;28;20173;-66
2023/11/07 09:18:02;;;;;;;2.20;1.33;;;17.10;67.10;;;;;;5115291;28;20169;-67
2023/11/07 09:20:27;;;;;;;1.52;1.40;;;17.10;67.40;;;;;;5115756;28;20260;-66
2023/11/07 09:22:53;;;;;;;3.10;1.48;;;17.00;67.30;;;;;;5114591;28;20216;-67
2023/11/07 09:25:19;;;;;;;1.27;1.17;;;17.00;67.60;;;;;;5115130;28;20182;-67
2023/11/07 09:27:47;;;;;;;3.30;1.23;;;17.00;67.40;;;;;;5115460;28;20261;-67
2023/11/07 09:30:12;;;;;;;2.15;1.27;;;17.10;67.50;;;;;;5114452;28;20177;-67
2023/11/07 09:32:38;;;;;;;2.85;1.55;;;17.10;67.50;;;;;;5115197;28;20578;-66
2023/11/07 09:35:07;;;;;;;1.90;1.17;;;17.10;67.30;;;;;;5114984;28;20165;-67
2023/11/07 09:37:36;;;;;;;1.70;1.35;;;17.10;67.50;;;;;;5114560;28;20177;-68
2023/11/07 09:40:09;;;;;;;2.45;1.10;;;17.00;67.50;;;;;;5114839;28;20180;-67
2023/11/07 09:42:35;;;;;;;2.47;1.20;;;16.90;67.70;;;;;;5115025;28;20671;-66
2023/11/07 09:45:06;;;;;;;2.03;1.50;;;16.90;67.80;;;;;;5113955;28;20180;-66
2023/11/07 09:47:35;;;;;;;3.08;1.20;;;16.80;67.80;;;;;;5081224;28;20185;-66
2023/11/07 09:50:02;;;;;;;3.20;1.15;;;16.80;67.90;;;;;;5114905;28;20180;-66
2023/11/07 09:52:28;;;;;;;1.77;1.20;;;16.80;68.10;;;;;;5114404;28;20177;-66
2023/11/07 09:54:54;;;;;;;1.50;1.30;;;16.80;68.10;;;;;;5096987;28;20541;-67
2023/11/07 09:57:22;;;;;;;2.42;1.42;;;16.90;68.10;;;;;;5096436;28;20248;-67
2023/11/07 09:59:58;;;;;;;2.45;1.23;;;16.90;68.10;;;;;;5096534;28;20200;-67
2023/11/07 10:02:24;;;;;;;3.15;1.10;;;16.80;67.90;;;;;;5097248;28;20204;-67
2023/11/07 10:04:50;;;;;;;2.55;1.25;;;16.90;68.00;;;;;;5114137;28;20169;-67
2023/11/07 10:07:15;;;;;;;2.42;1.40;;;16.90;67.90;;;;;;5114405;28;20538;-68
2023/11/07 10:09:41;;;;;;;1.52;0.93;;;16.80;67.80;;;;;;5114276;28;20214;-67
2023/11/07 10:12:14;;;;;;;2.17;1.30;;;16.80;68.00;;;;;;5113117;28;20256;-66
2023/11/07 10:14:39;;;;;;;1.80;1.20;;;16.80;68.10;;;;;;5113701;28;20173;-67
2023/11/07 10:17:05;;;;;;;2.15;1.10;;;16.70;68.20;;;;;;5114476;28;20169;-67
2023/11/07 10:19:30;;;;;;;1.20;0.93;;;16.80;68.20;;;;;;5113605;28;20581;-67
2023/11/07 10:21:56;;;;;;;3.00;1.23;;;16.80;68.20;;;;;;5114348;28;20204;-66
2023/11/07 10:24:21;;;;;;;1.67;1.23;;;16.80;68.10;;;;;;5114002;28;20282;-67
2023/11/07 10:26:58;;;;;;;2.75;1.20;;;16.90;68.00;;;;;;5113782;28;20535;-67
2023/11/07 10:29:27;;;;;;;1.83;1.20;;;16.90;68.00;;;;;;5114392;28;20539;-69
2023/11/07 10:32:00;;;;;;;3.28;0.98;;;16.90;67.80;;;;;;5096517;28;20553;-64
2023/11/07 10:34:26;;;;;;;1.58;1.00;;;16.90;67.90;;;;;;5113288;27;20256;-63
2023/11/07 10:36:51;;;;;;;2.10;1.20;;;16.80;67.90;;;;;;5122760;27;20302;-64
2023/11/07 10:39:21;;;;;;;0.93;0.93;;;16.90;68.10;;;;;;5125056;27;20177;-64
2023/11/07 10:41:49;;;;;;;2.03;1.35;;;16.90;68.00;;;;;;5133755;27;20200;-63
2023/11/07 10:44:25;;;;;;;1.95;1.17;;;16.80;68.20;;;;;;5117034;27;20181;-62
2023/11/07 10:46:57;;;;;;;2.10;1.20;;;16.80;68.30;;;;;;5112890;28;20520;-63
2023/11/07 10:49:23;;;;;;;0.80;0.77;;;16.80;68.20;;;;;;5113449;28;20601;-63
2023/11/07 10:51:48;;;;;;;2.00;1.20;;;16.90;68.30;;;;;;5122533;27;20168;-64
2023/11/07 10:54:15;;;;;;;1.33;1.15;;;16.90;68.20;;;;;;5133547;27;20169;-63
2023/11/07 10:56:43;;;;;;;2.25;1.48;;;16.90;68.40;;;;;;5133277;27;20190;-64
2023/11/07 10:59:23;;;;;;;1.20;1.02;;;16.80;68.50;;;;;;5133588;27;20187;-64
2023/11/07 11:01:52;;;;;;;2.03;1.23;;;16.90;68.30;;;;;;5133440;27;20204;-64
2023/11/07 11:04:20;;;;;;;1.73;1.20;;;16.90;68.20;;;;;;5133717;27;20285;-64
2023/11/07 11:06:57;;;;;;;1.38;1.25;;;17.00;68.10;;;;;;5133951;27;20778;-65
2023/11/07 11:09:23;;;;;;;2.28;1.10;;;17.00;68.00;;;;;;5120219;27;20176;-64
2023/11/07 11:11:51;;;;;;;2.35;1.40;;;17.00;67.80;;;;;;5095608;28;20176;-64
2023/11/07 11:14:17;;;;;;;3.25;1.20;;;17.00;67.70;;;;;;5113394;28;20181;-64
2023/11/07 11:16:43;;;;;;;1.42;1.05;;;17.00;67.70;;;;;;5112898;28;20180;-64
2023/11/07 11:19:32;;;;;;;1.92;1.17;;;16.90;67.90;;;;;;5095290;28;20176;-64
2023/11/07 11:22:26;;;;;;;1.95;1.17;;;16.90;68.10;;;;;;5112815;28;20233;-64
2023/11/07 11:25:00;;;;;;;1.20;1.02;;;16.90;68.30;;;;;;5113441;28;20173;-64
2023/11/07 11:27:41;;;;;;;1.70;0.98;;;16.90;68.30;;;;;;5113219;28;20169;-64
2023/11/07 11:30:09;;;;;;;3.38;1.38;;;16.90;68.50;;;;;;5094403;28;20172;-64
2023/11/07 11:32:36;;;;;;;2.05;0.90;;;16.90;68.30;;;;;;5113434;28;20201;-65
2023/11/07 11:35:17;;;;;;;2.17;1.05;;;16.90;68.70;;;;;;5112917;28;20177;-67
2023/11/07 11:38:10;;;;;;;2.10;1.02;;;16.90;68.10;;;;;;5112510;28;20169;-65
2023/11/07 11:40:52;;;;;;;1.63;0.95;;;16.90;68.00;;;;;;5112993;28;20249;-65
2023/11/07 11:43:22;;;;;;;3.88;1.65;;;17.00;68.00;;;;;;5111878;28;20208;-65
2023/11/07 11:45:48;;;;;;;3.72;1.10;;;17.00;68.00;;;;;;5112928;28;20630;-65
2023/11/07 11:48:15;;;;;;;2.38;1.20;;;16.90;68.00;;;;;;5112669;28;20224;-69
2023/11/07 11:50:41;;;;;;;2.42;1.30;;;16.90;68.10;;;;;;5112593;28;20169;-69
2023/11/07 11:53:08;;;;;;;1.63;0.88;;;16.90;68.10;;;;;;5112795;28;20177;-69
2023/11/07 11:55:59;;;;;;;1.33;1.02;;;16.90;68.00;;;;;;5112717;28;20177;-69
2023/11/07 11:58:30;;;;;;;1.98;1.20;;;16.90;68.00;;;;;;5112479;28;20234;-65
2023/11/07 12:00:55;;;;;;;3.13;0.80;;;16.90;68.10;;;;;;5113190;28;20201;-65
2023/11/07 12:03:22;;;;;;;3.80;1.20;;;16.90;68.20;;;;;;5112013;28;20263;-65
2023/11/07 12:06:22;;;;;;;2.20;1.13;;;16.90;68.30;;;;;;5094359;28;20177;-66
2023/11/07 12:08:48;;;;;;;2.33;1.25;;;16.80;68.30;;;;;;5079508;28;20268;-65
2023/11/07 12:11:13;;;;;;;2.42;1.02;;;16.80;68.40;;;;;;5112117;28;20256;-66
2023/11/07 12:13:39;;;;;;;1.85;1.20;;;16.80;68.50;;;;;;5113053;28;20268;-65
2023/11/07 12:16:18;;;;;;;2.35;1.30;;;16.80;68.70;;;;;;5112603;28;20256;-65
2023/11/07 12:18:47;;;;;;;3.03;1.10;;;16.80;68.60;;;;;;5112007;28;20658;-65
2023/11/07 12:21:33;;;;;;;1.80;1.00;;;16.80;68.60;;;;;;5112407;28;20198;-65
2023/11/07 12:24:01;;;;;;;2.85;1.23;;;16.80;68.60;;;;;;5112214;28;20220;-65
2023/11/07 12:26:39;;;;;;;3.25;1.25;;;16.80;68.70;;;;;;5112190;28;20170;-65
2023/11/07 12:29:06;;;;;;;2.20;1.10;;;16.80;68.70;;;;;;5112538;28;20571;-64
2023/11/07 12:31:38;;;;;;;3.67;1.10;;;16.80;68.70;;;;;;5112419;28;20648;-66
2023/11/07 12:34:04;;;;;;;3.75;1.23;;;16.80;68.60;;;;;;5111440;28;20708;-65
2023/11/07 12:36:29;;;;;;;3.13;1.05;;;16.80;68.80;;;;;;5114031;28;20256;-65
2023/11/07 12:38:55;;;;;;;3.40;1.02;;;16.70;68.50;;;;;;5116144;28;20173;-66
2023/11/07 12:41:20;;;;;;;2.33;1.20;;;16.70;69.00;;;;;;5080224;28;20204;-65
2023/11/07 12:43:46;;;;;;;2.13;1.08;;;16.70;68.90;;;;;;5081184;28;20233;-64
2023/11/07 12:46:14;;;;;;;1.92;0.98;;;16.70;68.80;;;;;;5115708;28;20165;-64
2023/11/07 12:48:39;;;;;;;0.85;0.73;;;16.80;68.60;;;;;;5116067;28;20228;-65